Time;durP1;ratioP1;P1;durP2;ratioP2;P2;SDS_P1;SDS_P2;PMS_P1;PMS_P2;Temp;Humidity;BMP_temperature;BMP_pressure;BME280_temperature;BME280_humidity;BME280_pressure;Samples;Min_cycle;Max_cycle;Signal;HPM_P1;HPM_P2
2021/01/18 08:14:49;;;;;;;;;6.60;6.20;;;;;;;;1533407;28;85433;-91
2021/01/18 08:15:35;;;;;;;;;8.40;7.20;;;;;;;;1535370;28;87049;-90
2021/01/18 08:16:20;;;;;;;;;8.50;8.50;;;;;;;;1528885;28;87005;-90
2021/01/18 08:17:16;;;;;;;;;7.00;7.00;;;;;;;;1522951;28;87986;-91
2021/01/18 08:18:20;;;;;;;;;5.60;5.60;;;;;;;;1523001;28;87071;-89
2021/01/18 08:19:10;;;;;;;;;6.00;6.00;;;;;;;;1528906;28;87069;-90
2021/01/18 08:20:08;;;;;;;;;11.20;8.40;;;;;;;;1528931;28;87042;-89
2021/01/18 08:20:56;;;;;;;;;8.80;8.80;;;;;;;;1523257;28;87222;-90
2021/01/18 08:21:43;;;;;;;;;7.60;7.40;;;;;;;;1521285;28;87087;-89
2021/01/18 08:22:29;;;;;;;;;7.20;7.20;;;;;;;;1519788;28;87051;-90
2021/01/18 08:23:42;;;;;;;;;5.40;5.40;;;;;;;;1525788;28;86313;-88
2021/01/18 08:24:28;;;;;;;;;8.60;8.60;;;;;;;;1526823;28;86990;-91
2021/01/18 08:25:13;;;;;;;;;9.25;9.25;;;;;;;;1528930;28;87016;-90
2021/01/18 08:26:04;;;;;;;;;4.00;2.00;;;;;;;;1523020;28;87986;-91
2021/01/18 08:26:52;;;;;;;;;9.20;8.00;;;;;;;;1523021;28;87598;-90
2021/01/18 08:27:38;;;;;;;;;7.40;7.40;;;;;;;;1523701;28;87053;-88
2021/01/18 08:28:26;;;;;;;;;7.75;7.75;;;;;;;;1522878;28;86936;-88
2021/01/18 08:29:29;;;;;;;;;6.60;6.60;;;;;;;;1517600;28;88797;-89
2021/01/18 08:30:23;;;;;;;;;10.80;10.80;;;;;;;;1516085;28;88658;-89
2021/01/18 08:31:15;;;;;;;;;6.80;6.80;;;;;;;;1522841;28;88743;-89
2021/01/18 08:32:19;;;;;;;;;8.00;7.00;;;;;;;;1521440;28;90322;-88
2021/01/18 08:33:24;;;;;;;;;10.40;10.40;;;;;;;;1517349;28;88538;-89
2021/01/18 08:34:10;;;;;;;;;7.40;6.40;;;;;;;;1517148;28;89887;-90
2021/01/18 08:34:56;;;;;;;;;7.50;7.50;;;;;;;;1521404;28;88673;-91
2021/01/18 08:35:42;;;;;;;;;8.80;8.80;;;;;;;;1517079;28;91349;-89
2021/01/18 08:36:30;;;;;;;;;8.00;6.00;;;;;;;;1517149;28;88785;-89
2021/01/18 08:37:16;;;;;;;;;8.00;8.00;;;;;;;;1519304;28;89502;-90
2021/01/18 08:38:21;;;;;;;;;8.00;8.00;;;;;;;;1516776;28;89001;-90
2021/01/18 08:39:08;;;;;;;;;6.80;6.80;;;;;;;;1521722;28;90317;-90
2021/01/18 08:39:58;;;;;;;;;8.40;7.20;;;;;;;;1521547;28;89175;-89
2021/01/18 08:41:20;;;;;;;;;7.80;7.80;;;;;;;;1523112;28;90900;-92
2021/01/18 08:42:23;;;;;;;;;8.00;8.00;;;;;;;;1517602;28;89209;-91
2021/01/18 08:43:08;;;;;;;;;3.80;3.80;;;;;;;;1516317;28;90006;-91
2021/01/18 08:43:54;;;;;;;;;10.00;5.50;;;;;;;;1521160;28;89130;-91
2021/01/18 08:44:42;;;;;;;;;7.00;7.00;;;;;;;;1522754;28;91825;-90
2021/01/18 08:45:38;;;;;;;;;7.40;5.40;;;;;;;;1522916;28;89047;-94
2021/01/18 08:46:38;;;;;;;;;5.60;5.00;;;;;;;;1516222;28;88056;-92
2021/01/18 08:47:53;;;;;;;;;5.40;5.40;;;;;;;;1522179;28;90312;-91
2021/01/18 08:48:38;;;;;;;;;8.00;8.00;;;;;;;;1516576;28;88015;-93
2021/01/18 08:49:32;;;;;;;;;7.25;7.25;;;;;;;;1511001;28;89250;-91
2021/01/18 08:50:18;;;;;;;;;7.00;7.00;;;;;;;;1502051;29;88461;-92
2021/01/18 08:51:05;;;;;;;;;8.25;7.50;;;;;;;;1505094;29;89354;-91
2021/01/18 08:51:51;;;;;;;;;6.00;5.00;;;;;;;;1507164;28;88012;-92
2021/01/18 08:52:57;;;;;;;;;12.60;7.60;;;;;;;;1503332;29;90672;-93
2021/01/18 08:53:49;;;;;;;;;7.40;6.20;;;;;;;;1504168;29;88582;-93
2021/01/18 08:54:40;;;;;;;;;10.00;9.80;;;;;;;;1513586;28;90869;-91
2021/01/18 08:55:31;;;;;;;;;8.20;5.60;;;;;;;;1507015;29;89166;-92
2021/01/18 08:56:27;;;;;;;;;5.80;5.80;;;;;;;;1511201;28;89394;-92
2021/01/18 08:57:19;;;;;;;;;9.40;7.60;;;;;;;;1512082;28;89720;-91
2021/01/18 08:58:07;;;;;;;;;7.80;4.60;;;;;;;;1508230;29;90461;-90
2021/01/18 08:58:55;;;;;;;;;7.80;7.00;;;;;;;;1503490;29;88325;-90
2021/01/18 08:59:45;;;;;;;;;7.60;7.60;;;;;;;;1500370;29;90490;-91
2021/01/18 09:00:37;;;;;;;;;9.40;9.40;;;;;;;;1508862;29;88858;-91
2021/01/18 09:01:27;;;;;;;;;7.60;7.40;;;;;;;;1515230;28;90493;-93
2021/01/18 09:02:16;;;;;;;;;7.60;7.60;;;;;;;;1506215;29;89594;-90
2021/01/18 09:03:02;;;;;;;;;8.40;8.40;;;;;;;;1501741;29;89567;-89
2021/01/18 09:04:07;;;;;;;;;9.00;8.50;;;;;;;;1502977;29;89327;-89
2021/01/18 09:04:53;;;;;;;;;7.40;6.80;;;;;;;;1516669;28;89560;-89
2021/01/18 09:05:41;;;;;;;;;10.25;8.25;;;;;;;;1515307;28;88988;-90
2021/01/18 09:06:27;;;;;;;;;15.60;13.00;;;;;;;;1503844;29;89137;-90
2021/01/18 09:07:18;;;;;;;;;12.20;10.80;;;;;;;;1495852;29;89293;-92
2021/01/18 09:08:15;;;;;;;;;10.40;10.40;;;;;;;;1502074;29;89470;-94
2021/01/18 09:09:18;;;;;;;;;11.80;10.20;;;;;;;;1499299;29;89233;-94
2021/01/18 09:10:07;;;;;;;;;9.40;9.40;;;;;;;;1498370;29;91499;-89
2021/01/18 09:10:52;;;;;;;;;15.40;11.00;;;;;;;;1498110;29;90382;-89
2021/01/18 09:11:39;;;;;;;;;9.50;8.25;;;;;;;;1495700;29;89013;-92
2021/01/18 09:12:25;;;;;;;;;8.60;8.60;;;;;;;;1495324;29;90994;-92
2021/01/18 09:13:17;;;;;;;;;9.50;9.50;;;;;;;;1495272;29;90181;-92
2021/01/18 09:14:04;;;;;;;;;10.20;8.00;;;;;;;;1512055;28;89776;-92
2021/01/18 09:14:49;;;;;;;;;3.60;2.80;;;;;;;;1516528;28;89123;-94
2021/01/18 09:15:37;;;;;;;;;7.25;7.25;;;;;;;;1514736;28;89558;-92
2021/01/18 09:16:22;;;;;;;;;9.20;9.20;;;;;;;;1513948;28;89485;-92
2021/01/18 09:17:11;;;;;;;;;4.50;4.50;;;;;;;;1514125;28;89584;-92
2021/01/18 09:18:17;;;;;;;;;4.40;4.40;;;;;;;;1507745;29;89742;-94
2021/01/18 09:19:06;;;;;;;;;5.40;5.40;;;;;;;;1509843;28;87212;-93
2021/01/18 09:19:54;;;;;;;;;6.80;6.60;;;;;;;;1509935;28;87066;-91
2021/01/18 09:20:40;;;;;;;;;6.20;5.80;;;;;;;;1510867;28;87178;-92
2021/01/18 09:21:37;;;;;;;;;;;;;;;;;;;;;
2021/01/18 09:22:23;;;;;;;;;6.00;4.00;;;;;;;;1512231;28;112825;-93
2021/01/18 09:23:10;;;;;;;;;6.00;6.00;;;;;;;;1513885;28;87047;-93
2021/01/18 09:23:56;;;;;;;;;7.80;6.00;;;;;;;;1517073;28;87376;-92
2021/01/18 09:24:52;;;;;;;;;;;;;;;;;;;;;
2021/01/18 09:25:39;;;;;;;;;5.20;5.20;;;;;;;;1510440;28;113442;-94
2021/01/18 09:26:24;;;;;;;;;8.20;7.20;;;;;;;;1514407;28;87886;-92
2021/01/18 09:27:28;;;;;;;;;7.00;7.00;;;;;;;;1511123;28;87086;-93
2021/01/18 09:28:15;;;;;;;;;6.40;4.20;;;;;;;;1515409;28;86872;-92
2021/01/18 09:29:00;;;;;;;;;8.20;6.40;;;;;;;;1511100;28;87061;-94
2021/01/18 09:29:58;;;;;;;;;6.50;6.25;;;;;;;;1513220;28;87118;-93
2021/01/18 09:30:56;;;;;;;;;9.60;6.00;;;;;;;;1511017;28;86991;-94
2021/01/18 09:31:41;;;;;;;;;3.40;3.20;;;;;;;;1516244;28;86844;-93
2021/01/18 09:32:28;;;;;;;;;9.40;7.00;;;;;;;;1514782;28;86037;-92
2021/01/18 09:33:13;;;;;;;;;9.00;9.00;;;;;;;;1510934;28;86747;-93
2021/01/18 09:34:11;;;;;;;;;9.00;6.00;;;;;;;;1507307;28;86921;-93
2021/01/18 09:35:06;;;;;;;;;12.80;9.80;;;;;;;;1508523;28;88092;-93
2021/01/18 09:35:51;;;;;;;;;9.00;8.00;;;;;;;;1512161;28;87021;-92
2021/01/18 09:36:42;;;;;;;;;6.00;6.00;;;;;;;;1510932;28;87012;-93
2021/01/18 09:37:27;;;;;;;;;8.40;6.00;;;;;;;;1513601;28;86939;-93
2021/01/18 09:38:14;;;;;;;;;4.50;2.25;;;;;;;;1513537;28;86952;-93
2021/01/18 09:39:05;;;;;;;;;9.00;6.80;;;;;;;;1511032;28;86991;-93
2021/01/18 09:39:50;;;;;;;;;6.40;6.40;;;;;;;;1507954;28;87096;-92
2021/01/18 09:40:39;;;;;;;;;8.25;6.00;;;;;;;;1507903;28;86191;-93
2021/01/18 09:41:25;;;;;;;;;10.60;8.60;;;;;;;;1513470;28;86950;-92
2021/01/18 09:42:23;;;;;;;;;5.75;5.75;;;;;;;;1513266;28;86821;-93
2021/01/18 09:43:09;;;;;;;;;6.40;6.40;;;;;;;;1514546;28;90411;-93
2021/01/18 09:43:54;;;;;;;;;12.00;9.00;;;;;;;;1514925;28;89850;-93
2021/01/18 09:44:40;;;;;;;;;7.25;7.25;;;;;;;;1511207;28;88759;-93
2021/01/18 09:45:27;;;;;;;;;11.50;11.50;;;;;;;;1507368;28;90551;-93
2021/01/18 09:46:18;;;;;;;;;11.40;10.80;;;;;;;;1507300;28;90118;-92
2021/01/18 09:47:04;;;;;;;;;16.20;11.40;;;;;;;;1513784;28;88842;-91
2021/01/18 09:47:51;;;;;;;;;10.25;8.50;;;;;;;;1511020;28;91273;-91
2021/01/18 09:48:40;;;;;;;;;12.20;10.00;;;;;;;;1513446;28;90567;-91
2021/01/18 09:49:27;;;;;;;;;5.00;5.00;;;;;;;;1514017;28;88093;-92
2021/01/18 09:50:16;;;;;;;;;6.80;6.80;;;;;;;;1511654;28;88717;-92
2021/01/18 09:51:02;;;;;;;;;7.40;7.40;;;;;;;;1509144;28;88934;-91
2021/01/18 09:51:47;;;;;;;;;10.00;9.00;;;;;;;;1516559;28;89685;-91
2021/01/18 09:52:33;;;;;;;;;6.00;6.00;;;;;;;;1516389;28;90092;-92
2021/01/18 09:53:18;;;;;;;;;9.00;7.25;;;;;;;;1513206;28;89332;-92
2021/01/18 09:54:10;;;;;;;;;9.50;6.00;;;;;;;;1508220;28;89055;-91
2021/01/18 09:54:58;;;;;;;;;7.40;7.40;;;;;;;;1509472;28;89760;-92
2021/01/18 09:55:51;;;;;;;;;4.40;4.40;;;;;;;;1515083;28;90505;-92
2021/01/18 09:56:39;;;;;;;;;6.80;6.80;;;;;;;;1511061;28;90530;-93
2021/01/18 09:57:39;;;;;;;;;5.00;5.00;;;;;;;;1514267;28;88686;-93
2021/01/18 09:58:33;;;;;;;;;4.00;4.00;;;;;;;;1515470;28;87525;-94
2021/01/18 09:59:19;;;;;;;;;6.00;6.00;;;;;;;;1512580;28;89921;-94
2021/01/18 10:00:08;;;;;;;;;7.20;5.80;;;;;;;;1509592;28;91615;-94
2021/01/18 10:00:56;;;;;;;;;7.00;7.00;;;;;;;;1507980;28;88686;-95
2021/01/18 10:02:04;;;;;;;;;;;;;;;;;;;;;
2021/01/18 10:03:00;;;;;;;;;;;;;;;;;;;;;
2021/01/18 10:04:29;;;;;;;;;4.20;4.20;;;;;;;;1516549;28;116553;-94
2021/01/18 10:05:40;;;;;;;;;4.60;4.60;;;;;;;;1510856;28;86994;-94
2021/01/18 10:06:29;;;;;;;;;7.00;4.20;;;;;;;;1514464;28;89308;-93
2021/01/18 10:07:36;;;;;;;;;;;;;;;;;;;;;
2021/01/18 10:08:26;;;;;;;;;9.00;7.80;;;;;;;;1505296;28;115702;-95
2021/01/18 10:09:15;;;;;;;;;5.20;4.20;;;;;;;;1505411;29;91556;-93
2021/01/18 10:10:00;;;;;;;;;5.40;5.40;;;;;;;;1504593;29;90372;-91
2021/01/18 10:10:49;;;;;;;;;10.00;4.75;;;;;;;;1506735;28;90358;-92
2021/01/18 10:11:44;;;;;;;;;6.00;6.00;;;;;;;;1515878;28;90404;-93
2021/01/18 10:12:40;;;;;;;;;9.00;9.00;;;;;;;;1512932;28;88849;-94
2021/01/18 10:13:25;;;;;;;;;10.80;9.00;;;;;;;;1505940;28;87606;-92
2021/01/18 10:14:24;;;;;;;;;6.75;6.75;;;;;;;;1506658;28;90394;-91
2021/01/18 10:15:09;;;;;;;;;6.00;6.00;;;;;;;;1511185;28;88648;-91
2021/01/18 10:16:04;;;;;;;;;6.00;6.00;;;;;;;;1517306;28;90303;-91
2021/01/18 10:16:56;;;;;;;;;2.40;2.20;;;;;;;;1507262;28;89961;-92
2021/01/18 10:17:41;;;;;;;;;5.80;4.00;;;;;;;;1509903;28;90286;-91
2021/01/18 10:18:27;;;;;;;;;5.25;5.25;;;;;;;;1506696;28;90350;-91
2021/01/18 10:19:16;;;;;;;;;4.00;4.00;;;;;;;;1512192;28;88652;-89
2021/01/18 10:20:07;;;;;;;;;7.00;5.60;;;;;;;;1512703;28;89235;-89
2021/01/18 10:20:54;;;;;;;;;6.00;4.80;;;;;;;;1515882;28;88306;-89
2021/01/18 10:21:39;;;;;;;;;4.60;3.80;;;;;;;;1513024;28;89126;-89
2021/01/18 10:22:24;;;;;;;;;6.00;4.00;;;;;;;;1516160;28;89102;-89
2021/01/18 10:23:15;;;;;;;;;6.00;6.00;;;;;;;;1517939;28;89414;-89
2021/01/18 10:24:00;;;;;;;;;6.00;5.80;;;;;;;;1513619;28;89055;-90
2021/01/18 10:24:59;;;;;;;;;8.00;8.00;;;;;;;;1506828;28;90331;-90
2021/01/18 10:25:48;;;;;;;;;6.00;6.00;;;;;;;;1509984;28;90814;-89
2021/01/18 10:26:35;;;;;;;;;6.40;5.40;;;;;;;;1520381;28;90651;-90
2021/01/18 10:27:24;;;;;;;;;9.20;5.20;;;;;;;;1513691;28;89154;-89
2021/01/18 10:28:16;;;;;;;;;6.60;6.60;;;;;;;;1506929;28;90911;-89
2021/01/18 10:29:05;;;;;;;;;11.80;8.00;;;;;;;;1510154;28;90030;-90
2021/01/18 10:30:06;;;;;;;;;6.80;5.80;;;;;;;;1516216;28;91008;-90
2021/01/18 10:30:53;;;;;;;;;7.80;7.80;;;;;;;;1506014;28;87024;-90
2021/01/18 10:31:39;;;;;;;;;11.20;8.40;;;;;;;;1508716;28;87151;-91
2021/01/18 10:32:36;;;;;;;;;8.00;6.50;;;;;;;;1512210;28;87052;-89
2021/01/18 10:33:21;;;;;;;;;11.40;8.00;;;;;;;;1519201;28;87042;-88
2021/01/18 10:34:16;;;;;;;;;8.50;8.25;;;;;;;;1512262;28;87955;-89
2021/01/18 10:35:15;;;;;;;;;10.00;8.40;;;;;;;;1513789;28;87173;-88
2021/01/18 10:36:00;;;;;;;;;8.80;6.60;;;;;;;;1522015;28;86928;-89
2021/01/18 10:36:47;;;;;;;;;11.00;8.00;;;;;;;;1522948;28;87096;-89
2021/01/18 10:37:32;;;;;;;;;8.80;8.80;;;;;;;;1520980;28;87209;-87
2021/01/18 10:38:19;;;;;;;;;6.75;6.75;;;;;;;;1511090;28;87060;-89
2021/01/18 10:39:04;;;;;;;;;0.80;0.80;;;;;;;;1507389;28;87146;-88
2021/01/18 10:39:50;;;;;;;;;8.00;8.00;;;;;;;;1513413;28;86128;-89
2021/01/18 10:40:35;;;;;;;;;5.00;5.00;;;;;;;;1513307;28;87019;-88
2021/01/18 10:41:21;;;;;;;;;4.25;4.25;;;;;;;;1507599;28;87089;-89
2021/01/18 10:42:10;;;;;;;;;6.00;6.00;;;;;;;;1507330;28;87980;-88
2021/01/18 10:42:55;;;;;;;;;7.20;7.20;;;;;;;;1507718;28;87104;-87
2021/01/18 10:43:41;;;;;;;;;7.80;6.60;;;;;;;;1507982;28;87180;-88
2021/01/18 10:44:26;;;;;;;;;7.75;6.50;;;;;;;;1507342;28;87038;-88
2021/01/18 10:45:15;;;;;;;;;12.00;12.00;;;;;;;;1515768;28;87067;-89
2021/01/18 10:46:00;;;;;;;;;11.00;10.20;;;;;;;;1519743;28;87201;-89
2021/01/18 10:46:48;;;;;;;;;16.25;12.25;;;;;;;;1522175;28;87082;-89
2021/01/18 10:47:34;;;;;;;;;10.00;10.00;;;;;;;;1511955;28;86373;-88
2021/01/18 10:48:25;;;;;;;;;9.50;8.00;;;;;;;;1507374;28;87299;-88
2021/01/18 10:49:10;;;;;;;;;7.00;7.00;;;;;;;;1508059;28;87180;-87
2021/01/18 10:49:59;;;;;;;;;9.75;7.25;;;;;;;;1518226;28;88413;-88
2021/01/18 10:50:54;;;;;;;;;6.40;6.40;;;;;;;;1519308;28;87083;-88
2021/01/18 10:51:39;;;;;;;;;7.80;6.80;;;;;;;;1523321;28;86709;-87
2021/01/18 10:52:31;;;;;;;;;10.25;9.25;;;;;;;;1522922;28;86947;-88
2021/01/18 10:53:16;;;;;;;;;8.60;8.60;;;;;;;;1517214;28;87020;-88
2021/01/18 10:54:01;;;;;;;;;5.50;5.00;;;;;;;;1514025;28;87554;-88
2021/01/18 10:55:07;;;;;;;;;7.75;7.75;;;;;;;;1517249;28;90304;-88
2021/01/18 10:56:08;;;;;;;;;8.20;6.60;;;;;;;;1516738;28;89069;-88
2021/01/18 10:56:57;;;;;;;;;3.80;3.80;;;;;;;;1517201;28;88077;-88
2021/01/18 10:57:43;;;;;;;;;6.40;5.80;;;;;;;;1515581;28;90299;-88
2021/01/18 10:58:28;;;;;;;;;6.20;6.00;;;;;;;;1519038;28;90082;-89
2021/01/18 10:59:13;;;;;;;;;7.25;7.25;;;;;;;;1519321;28;90580;-88
2021/01/18 11:00:09;;;;;;;;;7.00;6.00;;;;;;;;1523063;28;88682;-88
2021/01/18 11:01:05;;;;;;;;;5.80;5.80;;;;;;;;1517051;28;88793;-88
2021/01/18 11:02:06;;;;;;;;;7.00;6.40;;;;;;;;1517000;28;89213;-86
2021/01/18 11:02:53;;;;;;;;;7.20;6.80;;;;;;;;1520677;28;88630;-88
2021/01/18 11:03:40;;;;;;;;;7.60;5.60;;;;;;;;1521115;28;89153;-88
2021/01/18 11:04:26;;;;;;;;;7.00;6.60;;;;;;;;1525636;28;89244;-88
2021/01/18 11:05:11;;;;;;;;;6.75;6.50;;;;;;;;1518573;28;89555;-87
2021/01/18 11:05:57;;;;;;;;;7.25;7.25;;;;;;;;1517005;28;90119;-87
2021/01/18 11:06:42;;;;;;;;;10.75;9.00;;;;;;;;1512694;28;90278;-88
2021/01/18 11:07:29;;;;;;;;;6.00;6.00;;;;;;;;1513606;28;91054;-88
2021/01/18 11:08:14;;;;;;;;;8.60;7.00;;;;;;;;1520286;28;89318;-89
2021/01/18 11:09:00;;;;;;;;;7.50;6.00;;;;;;;;1518908;28;90200;-87
2021/01/18 11:09:54;;;;;;;;;7.00;7.00;;;;;;;;1520656;28;87898;-89
2021/01/18 11:10:40;;;;;;;;;6.00;4.20;;;;;;;;1522317;28;88805;-88
2021/01/18 11:11:27;;;;;;;;;6.60;6.60;;;;;;;;1524786;28;87672;-88
2021/01/18 11:12:32;;;;;;;;;4.00;4.00;;;;;;;;1524257;28;88956;-89
2021/01/18 11:13:18;;;;;;;;;5.80;5.40;;;;;;;;1517732;28;87909;-87
2021/01/18 11:14:05;;;;;;;;;6.80;4.40;;;;;;;;1520911;28;89795;-89
2021/01/18 11:14:56;;;;;;;;;8.00;5.80;;;;;;;;1519339;28;89333;-88
2021/01/18 11:15:43;;;;;;;;;5.00;5.00;;;;;;;;1520385;28;91318;-88
2021/01/18 11:16:28;;;;;;;;;5.00;4.00;;;;;;;;1525990;28;90466;-88
2021/01/18 11:17:14;;;;;;;;;11.00;8.00;;;;;;;;1524949;28;87829;-89
2021/01/18 11:17:59;;;;;;;;;7.75;7.75;;;;;;;;1522995;28;89385;-88
2021/01/18 11:18:45;;;;;;;;;6.50;6.50;;;;;;;;1519004;28;88883;-89
2021/01/18 11:19:30;;;;;;;;;6.00;6.00;;;;;;;;1519095;28;90283;-88
2021/01/18 11:20:22;;;;;;;;;6.00;5.67;;;;;;;;1525374;28;88210;-89
2021/01/18 11:21:07;;;;;;;;;5.60;4.00;;;;;;;;1529320;28;89222;-89
2021/01/18 11:21:52;;;;;;;;;4.25;4.25;;;;;;;;1523514;28;88936;-89
2021/01/18 11:22:38;;;;;;;;;5.00;4.25;;;;;;;;1519013;28;91297;-89
2021/01/18 11:23:23;;;;;;;;;10.50;8.00;;;;;;;;1519302;28;89202;-88
2021/01/18 11:24:08;;;;;;;;;10.50;10.50;;;;;;;;1525078;28;88966;-89
2021/01/18 11:24:54;;;;;;;;;10.75;8.50;;;;;;;;1522983;28;89945;-89
2021/01/18 11:25:39;;;;;;;;;5.25;5.25;;;;;;;;1523078;28;90257;-88
2021/01/18 11:26:24;;;;;;;;;5.00;5.00;;;;;;;;1525296;28;89309;-90
2021/01/18 11:27:09;;;;;;;;;8.25;7.00;;;;;;;;1523274;28;89409;-88
2021/01/18 11:28:05;;;;;;;;;9.50;7.25;;;;;;;;1523216;28;88286;-88
2021/01/18 11:28:51;;;;;;;;;6.80;5.00;;;;;;;;1526656;28;89377;-87
2021/01/18 11:29:36;;;;;;;;;6.00;6.00;;;;;;;;1522947;28;88992;-88
2021/01/18 11:30:21;;;;;;;;;8.00;6.00;;;;;;;;1520411;28;89644;-88
2021/01/18 11:31:07;;;;;;;;;10.25;9.50;;;;;;;;1523063;28;89458;-87
2021/01/18 11:31:52;;;;;;;;;9.25;8.25;;;;;;;;1516920;28;89982;-87
2021/01/18 11:32:38;;;;;;;;;11.00;8.00;;;;;;;;1519269;28;87785;-87
2021/01/18 11:33:23;;;;;;;;;8.80;7.00;;;;;;;;1524988;28;90151;-87
2021/01/18 11:34:09;;;;;;;;;9.75;8.50;;;;;;;;1523065;28;90354;-87
2021/01/18 11:34:54;;;;;;;;;13.00;10.50;;;;;;;;1522433;28;89487;-87
2021/01/18 11:35:41;;;;;;;;;6.75;6.75;;;;;;;;1523021;28;88516;-87
2021/01/18 11:36:26;;;;;;;;;8.00;7.00;;;;;;;;1523728;28;87687;-84
2021/01/18 11:37:12;;;;;;;;;7.00;7.00;;;;;;;;1525200;28;89187;-86
2021/01/18 11:37:57;;;;;;;;;9.50;9.00;;;;;;;;1528566;28;90932;-87
2021/01/18 11:38:42;;;;;;;;;7.50;5.75;;;;;;;;1531639;28;89397;-87
2021/01/18 11:39:27;;;;;;;;;5.75;5.00;;;;;;;;1522854;28;87389;-86
2021/01/18 11:40:13;;;;;;;;;5.00;4.50;;;;;;;;1524983;28;87032;-86
2021/01/18 11:40:58;;;;;;;;;8.75;7.25;;;;;;;;1524842;28;87393;-87
2021/01/18 11:41:43;;;;;;;;;9.25;7.75;;;;;;;;1528819;28;87287;-88
2021/01/18 11:42:28;;;;;;;;;7.50;7.50;;;;;;;;1528821;28;87348;-87
2021/01/18 11:43:14;;;;;;;;;8.50;8.50;;;;;;;;1523043;28;86580;-87
2021/01/18 11:43:59;;;;;;;;;7.00;7.00;;;;;;;;1518809;28;86950;-87
2021/01/18 11:44:44;;;;;;;;;6.50;6.25;;;;;;;;1523041;28;87006;-88
2021/01/18 11:45:30;;;;;;;;;8.50;7.50;;;;;;;;1524530;28;88014;-88
2021/01/18 11:46:18;;;;;;;;;6.00;6.00;;;;;;;;1522824;28;87052;-87
2021/01/18 11:47:03;;;;;;;;;10.00;10.00;;;;;;;;1519346;28;87092;-88
2021/01/18 11:47:49;;;;;;;;;9.00;6.00;;;;;;;;1519432;28;87137;-87
2021/01/18 11:48:34;;;;;;;;;7.25;6.25;;;;;;;;1524874;28;87038;-86
2021/01/18 11:49:19;;;;;;;;;9.75;6.75;;;;;;;;1524793;28;87358;-87
2021/01/18 11:50:06;;;;;;;;;5.25;5.25;;;;;;;;1529103;28;87089;-86
2021/01/18 11:50:51;;;;;;;;;6.60;6.00;;;;;;;;1529174;28;86960;-87
2021/01/18 11:51:37;;;;;;;;;8.00;6.75;;;;;;;;1522804;28;87071;-85
2021/01/18 11:52:22;;;;;;;;;7.67;7.00;;;;;;;;1525041;28;86979;-86
2021/01/18 11:53:11;;;;;;;;;8.25;7.00;;;;;;;;1530752;28;87827;-88
2021/01/18 11:53:56;;;;;;;;;8.80;6.60;;;;;;;;1529014;28;86755;-88
2021/01/18 11:54:42;;;;;;;;;5.00;5.00;;;;;;;;1522856;28;86975;-87
2021/01/18 11:55:27;;;;;;;;;9.00;6.00;;;;;;;;1518970;28;87095;-87
2021/01/18 11:56:12;;;;;;;;;5.75;5.75;;;;;;;;1517062;28;86684;-87
2021/01/18 11:56:57;;;;;;;;;4.00;4.00;;;;;;;;1518879;28;87088;-86
2021/01/18 11:57:44;;;;;;;;;5.00;5.00;;;;;;;;1522969;28;87165;-87
2021/01/18 11:58:29;;;;;;;;;6.60;5.00;;;;;;;;1517257;28;87239;-87
2021/01/18 11:59:14;;;;;;;;;6.67;6.00;;;;;;;;1522031;28;87000;-88
2021/01/18 12:00:00;;;;;;;;;5.00;5.00;;;;;;;;1532004;28;87180;-87
2021/01/18 12:00:45;;;;;;;;;3.67;3.00;;;;;;;;1528909;28;89186;-87
2021/01/18 12:01:30;;;;;;;;;5.00;4.33;;;;;;;;1528948;28;89878;-87
2021/01/18 12:02:18;;;;;;;;;5.33;4.00;;;;;;;;1529013;28;87473;-87
2021/01/18 12:03:04;;;;;;;;;10.00;6.75;;;;;;;;1528845;28;89895;-88
2021/01/18 12:03:49;;;;;;;;;9.00;8.75;;;;;;;;1526640;28;88891;-86
2021/01/18 12:04:34;;;;;;;;;8.00;6.00;;;;;;;;1518837;28;89756;-87
2021/01/18 12:05:22;;;;;;;;;7.50;7.00;;;;;;;;1518763;28;90683;-86
2021/01/18 12:06:07;;;;;;;;;7.75;6.00;;;;;;;;1519353;28;89835;-87
2021/01/18 12:06:52;;;;;;;;;9.50;9.00;;;;;;;;1525110;28;89221;-87
2021/01/18 12:07:38;;;;;;;;;7.25;5.50;;;;;;;;1529023;28;90155;-87
2021/01/18 12:08:23;;;;;;;;;9.25;7.00;;;;;;;;1528702;28;90101;-88
2021/01/18 12:09:09;;;;;;;;;6.00;6.00;;;;;;;;1523003;28;89734;-88
2021/01/18 12:09:54;;;;;;;;;7.25;6.00;;;;;;;;1518991;28;89189;-86
2021/01/18 12:10:41;;;;;;;;;8.00;7.00;;;;;;;;1518947;28;90500;-87
2021/01/18 12:11:27;;;;;;;;;5.50;4.50;;;;;;;;1525113;28;90310;-86
2021/01/18 12:12:12;;;;;;;;;5.33;4.67;;;;;;;;1529266;28;87622;-86
2021/01/18 12:12:57;;;;;;;;;6.50;6.50;;;;;;;;1524898;28;89040;-87
2021/01/18 12:13:42;;;;;;;;;6.50;6.50;;;;;;;;1528575;28;89642;-86
2021/01/18 12:14:28;;;;;;;;;4.50;4.50;;;;;;;;1524723;28;90668;-87
2021/01/18 12:15:13;;;;;;;;;6.00;6.00;;;;;;;;1532981;28;89823;-86
2021/01/18 12:15:58;;;;;;;;;5.33;5.00;;;;;;;;1531377;28;88951;-88
2021/01/18 12:16:43;;;;;;;;;10.00;7.00;;;;;;;;1530347;28;91205;-86
2021/01/18 12:17:29;;;;;;;;;7.00;7.00;;;;;;;;1523582;28;89728;-86
2021/01/18 12:18:14;;;;;;;;;7.50;7.50;;;;;;;;1526416;28;89642;-86
2021/01/18 12:18:59;;;;;;;;;5.33;4.67;;;;;;;;1526572;28;88711;-86
2021/01/18 12:19:45;;;;;;;;;8.00;8.00;;;;;;;;1524962;28;90341;-86
2021/01/18 12:20:30;;;;;;;;;9.80;8.00;;;;;;;;1522746;28;90150;-86
2021/01/18 12:21:16;;;;;;;;;5.75;5.75;;;;;;;;1518940;28;90255;-84
2021/01/18 12:22:01;;;;;;;;;7.50;7.50;;;;;;;;1527683;28;86997;-87
2021/01/18 12:22:47;;;;;;;;;8.25;7.00;;;;;;;;1524754;28;90244;-86
2021/01/18 12:23:32;;;;;;;;;5.67;5.33;;;;;;;;1528594;28;91248;-86
2021/01/18 12:24:17;;;;;;;;;5.00;5.00;;;;;;;;1528936;28;90093;-86
2021/01/18 12:25:04;;;;;;;;;4.67;4.67;;;;;;;;1528825;28;89186;-87
2021/01/18 12:25:49;;;;;;;;;10.75;7.00;;;;;;;;1522740;28;90335;-87
2021/01/18 12:26:35;;;;;;;;;7.33;7.33;;;;;;;;1524948;28;89001;-86
2021/01/18 12:27:22;;;;;;;;;8.00;8.00;;;;;;;;1524956;28;88952;-87
2021/01/18 12:28:08;;;;;;;;;6.60;6.60;;;;;;;;1522768;28;90479;-86
2021/01/18 12:28:53;;;;;;;;;11.25;10.00;;;;;;;;1519165;28;89757;-86
2021/01/18 12:29:38;;;;;;;;;5.00;4.00;;;;;;;;1524692;28;89666;-87
2021/01/18 12:30:24;;;;;;;;;5.75;4.75;;;;;;;;1529062;28;88921;-87
2021/01/18 12:31:26;;;;;;;;;7.50;7.50;;;;;;;;1528688;28;89876;-87
2021/01/18 12:32:12;;;;;;;;;8.20;6.00;;;;;;;;1523322;28;90203;-88
2021/01/18 12:32:57;;;;;;;;;7.00;5.33;;;;;;;;1521684;28;88903;-87
2021/01/18 12:33:43;;;;;;;;;5.67;5.67;;;;;;;;1523117;28;87695;-87
2021/01/18 12:34:28;;;;;;;;;5.40;5.40;;;;;;;;1524744;28;89921;-88
2021/01/18 12:35:13;;;;;;;;;7.00;4.50;;;;;;;;1528884;28;87951;-88
2021/01/18 12:35:59;;;;;;;;;6.00;6.00;;;;;;;;1528878;28;89333;-88
2021/01/18 12:36:52;;;;;;;;;6.67;6.00;;;;;;;;1529112;28;89535;-88
2021/01/18 12:37:38;;;;;;;;;5.00;5.00;;;;;;;;1529117;28;88973;-88
2021/01/18 12:38:23;;;;;;;;;12.67;8.00;;;;;;;;1528878;28;90199;-87
2021/01/18 12:39:09;;;;;;;;;6.00;6.00;;;;;;;;1522519;28;91349;-87
2021/01/18 12:39:54;;;;;;;;;5.50;5.50;;;;;;;;1518832;28;88922;-88
2021/01/18 12:40:39;;;;;;;;;6.33;6.00;;;;;;;;1524825;28;91048;-87
2021/01/18 12:41:25;;;;;;;;;9.33;8.00;;;;;;;;1522851;28;90765;-88
2021/01/18 12:42:10;;;;;;;;;6.00;6.00;;;;;;;;1522827;28;88697;-88
2021/01/18 12:42:55;;;;;;;;;6.33;6.00;;;;;;;;1524834;28;90213;-87
2021/01/18 12:43:40;;;;;;;;;6.67;6.00;;;;;;;;1525656;28;89877;-88
2021/01/18 12:44:26;;;;;;;;;8.67;6.33;;;;;;;;1522976;28;86239;-86
2021/01/18 12:45:12;;;;;;;;;6.67;6.67;;;;;;;;1524606;28;86973;-86
2021/01/18 12:46:00;;;;;;;;;10.00;5.25;;;;;;;;1522896;28;87066;-86
2021/01/18 12:46:46;;;;;;;;;3.75;3.00;;;;;;;;1522548;28;88110;-87
2021/01/18 12:47:31;;;;;;;;;7.00;6.00;;;;;;;;1525245;28;86703;-88
2021/01/18 12:48:17;;;;;;;;;10.33;6.00;;;;;;;;1522932;28;87183;-87
2021/01/18 12:49:02;;;;;;;;;7.50;5.50;;;;;;;;1522669;28;87022;-86
2021/01/18 12:49:48;;;;;;;;;9.33;6.67;;;;;;;;1518781;28;86983;-87
2021/01/18 12:50:33;;;;;;;;;7.33;7.33;;;;;;;;1524854;28;86962;-87
2021/01/18 12:51:18;;;;;;;;;8.33;7.33;;;;;;;;1524661;28;87253;-87
2021/01/18 12:52:04;;;;;;;;;8.00;6.00;;;;;;;;1522945;28;86691;-87
2021/01/18 12:52:50;;;;;;;;;8.00;7.33;;;;;;;;1524721;28;86919;-88
2021/01/18 12:53:45;;;;;;;;;4.75;3.25;;;;;;;;1524874;28;87164;-87
2021/01/18 12:54:31;;;;;;;;;4.50;4.50;;;;;;;;1528621;28;87759;-87
2021/01/18 12:55:19;;;;;;;;;6.75;6.75;;;;;;;;1526108;28;87093;-87
2021/01/18 12:56:04;;;;;;;;;8.50;7.00;;;;;;;;1522720;28;86980;-88
2021/01/18 12:56:53;;;;;;;;;7.33;7.33;;;;;;;;1524931;28;87117;-87
2021/01/18 12:57:38;;;;;;;;;8.00;6.25;;;;;;;;1515987;28;86993;-88
2021/01/18 12:58:23;;;;;;;;;5.00;5.00;;;;;;;;1513394;28;87282;-88
2021/01/18 12:59:09;;;;;;;;;6.00;6.00;;;;;;;;1518745;28;87323;-88
2021/01/18 12:59:56;;;;;;;;;4.00;4.00;;;;;;;;1516751;28;87615;-89
2021/01/18 13:00:41;;;;;;;;;7.50;5.50;;;;;;;;1513150;28;87197;-89
2021/01/18 13:01:28;;;;;;;;;5.33;5.33;;;;;;;;1513153;28;87160;-89
2021/01/18 13:02:14;;;;;;;;;6.00;5.00;;;;;;;;1518967;28;87927;-89
2021/01/18 13:02:59;;;;;;;;;7.00;6.00;;;;;;;;1516906;28;86814;-88
2021/01/18 13:03:45;;;;;;;;;6.00;6.00;;;;;;;;1512880;28;87125;-89
2021/01/18 13:04:33;;;;;;;;;7.25;5.50;;;;;;;;1513012;28;87024;-89
2021/01/18 13:05:18;;;;;;;;;8.00;7.75;;;;;;;;1519232;28;87110;-88
2021/01/18 13:06:03;;;;;;;;;8.00;7.33;;;;;;;;1520114;28;87123;-89
2021/01/18 13:06:49;;;;;;;;;7.67;7.67;;;;;;;;1513094;28;90574;-89
2021/01/18 13:07:34;;;;;;;;;7.00;6.25;;;;;;;;1519156;28;87587;-89